createdAt,value
2023-06-22T00:01:28.153Z,19.25
2023-06-22T00:03:56.715Z,19.25
2023-06-22T00:06:25.406Z,19.25
2023-06-22T00:08:54.171Z,19.19
2023-06-22T00:11:24.594Z,19.21
2023-06-22T00:13:53.124Z,19.20
2023-06-22T00:16:23.607Z,19.15
2023-06-22T00:18:52.454Z,19.10
2023-06-22T00:21:21.676Z,19.03
2023-06-22T00:23:50.795Z,18.99
2023-06-22T00:26:19.900Z,18.96
2023-06-22T00:28:52.653Z,18.93
2023-06-22T00:31:20.860Z,18.87
2023-06-22T00:33:51.702Z,18.84
2023-06-22T00:36:21.069Z,18.84
2023-06-22T00:38:54.697Z,18.83
2023-06-22T00:41:23.032Z,18.80
2023-06-22T00:43:52.757Z,18.79
2023-06-22T00:46:23.922Z,18.74
2023-06-22T00:49:01.545Z,18.73
2023-06-22T00:51:30.292Z,18.68
2023-06-22T00:53:58.941Z,18.68
2023-06-22T00:56:30.981Z,18.62
2023-06-22T00:59:05.715Z,18.56
2023-06-22T01:01:35.524Z,18.52
2023-06-22T01:04:03.989Z,18.48
2023-06-22T01:06:45.197Z,18.41
2023-06-22T01:09:22.146Z,18.36
2023-06-22T01:11:57.259Z,18.29
2023-06-22T01:14:36.215Z,18.23
2023-06-22T01:17:17.337Z,18.14
2023-06-22T01:19:51.825Z,18.11
2023-06-22T01:22:24.830Z,18.05
2023-06-22T01:25:01.939Z,18.01
2023-06-22T01:27:42.544Z,17.98
2023-06-22T01:30:14.105Z,17.95
2023-06-22T01:32:43.633Z,17.96
2023-06-22T01:35:13.034Z,17.93
2023-06-22T01:37:51.956Z,17.91
2023-06-22T01:40:24.818Z,17.90
2023-06-22T01:42:53.598Z,17.89
2023-06-22T01:45:26.816Z,17.85
2023-06-22T01:47:56.093Z,17.80
2023-06-22T01:50:27.711Z,17.79
2023-06-22T01:52:56.219Z,17.72
2023-06-22T01:55:24.546Z,17.67
2023-06-22T01:57:52.864Z,17.64
2023-06-22T02:00:26.170Z,17.59
2023-06-22T02:03:01.760Z,17.54
2023-06-22T02:05:52.749Z,17.48
2023-06-22T02:08:27.355Z,17.48
2023-06-22T02:10:57.429Z,17.44
2023-06-22T02:13:27.787Z,17.42
2023-06-22T02:16:00.288Z,17.34
2023-06-22T02:18:29.288Z,17.35
2023-06-22T02:21:00.919Z,17.33
2023-06-22T02:23:36.846Z,17.28
2023-06-22T02:26:05.868Z,17.28
2023-06-22T02:28:34.141Z,17.27
2023-06-22T02:31:10.595Z,17.27
2023-06-22T02:33:38.926Z,17.25
2023-06-22T02:36:10.279Z,17.28
2023-06-22T02:38:38.923Z,17.29
2023-06-22T02:41:08.634Z,17.32
2023-06-22T02:43:42.135Z,17.35
2023-06-22T02:46:14.934Z,17.39
2023-06-22T02:48:44.485Z,17.48
2023-06-22T02:51:16.100Z,17.62
2023-06-22T02:53:50.734Z,17.91
2023-06-22T02:56:19.137Z,18.20
2023-06-22T02:58:47.442Z,18.42
2023-06-22T03:01:17.321Z,18.52
2023-06-22T03:03:48.013Z,18.57
2023-06-22T03:06:16.288Z,18.68
2023-06-22T03:08:45.094Z,18.89
2023-06-22T03:11:16.540Z,19.15
2023-06-22T03:13:44.800Z,19.31
2023-06-22T03:16:13.980Z,19.35
2023-06-22T03:18:44.505Z,19.24
2023-06-22T03:21:13.354Z,19.12
2023-06-22T03:23:41.621Z,18.95
2023-06-22T03:26:10.723Z,18.83
2023-06-22T03:28:42.371Z,18.71
2023-06-22T03:31:10.899Z,18.63
2023-06-22T03:33:39.167Z,18.50
2023-06-22T03:36:10.148Z,18.43
2023-06-22T03:41:16.059Z,18.36
2023-06-22T03:43:44.752Z,18.31
2023-06-22T03:46:13.245Z,18.31
2023-06-22T03:48:41.731Z,18.31
2023-06-22T03:51:11.495Z,18.29
2023-06-22T03:53:43.021Z,18.31
2023-06-22T03:56:11.635Z,18.33
2023-06-22T03:58:44.422Z,18.34
2023-06-22T04:01:13.795Z,18.35
2023-06-22T04:03:43.774Z,18.41
2023-06-22T04:06:13.516Z,18.42
2023-06-22T04:08:42.252Z,18.43
2023-06-22T04:11:13.235Z,18.48
2023-06-22T04:13:44.029Z,18.51
2023-06-22T04:16:12.327Z,18.53
2023-06-22T04:18:42.534Z,18.55
2023-06-22T04:21:13.247Z,18.57
2023-06-22T04:23:45.543Z,18.54
2023-06-22T04:26:13.741Z,18.62
2023-06-22T04:28:41.889Z,18.81
2023-06-22T04:31:12.258Z,18.91
2023-06-22T04:33:41.923Z,18.93
2023-06-22T04:36:10.635Z,19.08
2023-06-22T04:38:44.638Z,19.14
2023-06-22T04:41:24.938Z,19.18
2023-06-22T04:43:57.548Z,19.31
2023-06-22T04:46:25.690Z,19.35
2023-06-22T04:49:05.126Z,19.37
2023-06-22T04:51:36.679Z,19.34
2023-06-22T04:54:06.923Z,19.36
2023-06-22T04:56:35.427Z,19.37
2023-06-22T04:59:06.383Z,19.37
2023-06-22T05:01:39.356Z,19.26
2023-06-22T05:04:08.051Z,19.25
2023-06-22T05:06:40.067Z,19.18
2023-06-22T05:09:14.442Z,19.16
2023-06-22T05:11:44.459Z,19.14
2023-06-22T05:14:13.142Z,19.20
2023-06-22T05:16:43.854Z,19.22
2023-06-22T05:19:14.816Z,19.21
2023-06-22T05:21:46.955Z,19.23
2023-06-22T05:24:16.758Z,19.28
2023-06-22T05:26:44.980Z,19.30
2023-06-22T05:29:18.746Z,19.37
2023-06-22T05:31:48.175Z,19.39
2023-06-22T05:34:17.085Z,19.48
2023-06-22T05:36:45.447Z,19.50
2023-06-22T05:39:16.795Z,19.56
2023-06-22T05:41:48.806Z,19.63
2023-06-22T05:44:17.321Z,19.69
2023-06-22T05:46:47.752Z,19.68
2023-06-22T05:49:17.466Z,19.84
2023-06-22T05:51:45.888Z,19.91
2023-06-22T05:54:15.059Z,19.97
2023-06-22T05:56:44.293Z,20.01
2023-06-22T05:59:19.364Z,19.91
2023-06-22T06:01:52.313Z,20.03
2023-06-22T06:04:20.988Z,20.05
2023-06-22T06:06:49.564Z,20.17
2023-06-22T06:09:23.680Z,20.15
2023-06-22T06:11:52.082Z,20.22
2023-06-22T06:14:22.344Z,20.14
2023-06-22T06:16:51.231Z,20.14
2023-06-22T06:19:19.966Z,20.06
2023-06-22T06:21:48.382Z,20.18
2023-06-22T06:24:17.315Z,20.27
2023-06-22T06:26:45.640Z,20.34
2023-06-22T06:29:17.735Z,20.35
2023-06-22T06:31:52.770Z,20.35
2023-06-22T06:34:26.096Z,20.44
2023-06-22T06:36:56.433Z,20.48
2023-06-22T06:39:26.460Z,20.60
2023-06-22T06:41:56.203Z,20.71
2023-06-22T06:44:31.618Z,20.85
2023-06-22T06:47:01.288Z,20.84
2023-06-22T06:49:34.397Z,20.91
2023-06-22T06:52:02.758Z,20.95
2023-06-22T06:54:33.463Z,21.02
2023-06-22T06:57:04.311Z,20.92
2023-06-22T06:59:35.807Z,20.90
2023-06-22T07:02:07.815Z,21.02
2023-06-22T07:04:36.235Z,21.11
2023-06-22T07:07:05.125Z,21.21
2023-06-22T07:09:38.198Z,21.24
2023-06-22T07:12:07.445Z,21.14
2023-06-22T07:14:38.603Z,21.12
2023-06-22T07:17:08.336Z,21.03
2023-06-22T07:19:39.253Z,21.00
2023-06-22T07:22:07.861Z,21.01
2023-06-22T07:24:39.234Z,21.09
2023-06-22T07:27:08.755Z,21.06
2023-06-22T07:29:42.775Z,21.11
2023-06-22T07:32:12.662Z,21.22
2023-06-22T07:34:41.129Z,21.22
2023-06-22T07:37:12.086Z,21.28
2023-06-22T07:39:51.962Z,21.29
2023-06-22T07:42:24.296Z,21.25
2023-06-22T07:44:53.044Z,21.29
2023-06-22T07:47:27.190Z,21.42
2023-06-22T07:49:56.215Z,21.44
2023-06-22T07:52:27.336Z,21.42
2023-06-22T07:54:55.617Z,21.47
2023-06-22T07:57:26.498Z,21.50
2023-06-22T07:59:57.869Z,21.59
2023-06-22T08:02:34.724Z,21.63
2023-06-22T08:05:14.877Z,21.60
2023-06-22T08:07:48.801Z,21.63
2023-06-22T08:10:17.744Z,21.63
2023-06-22T08:12:46.162Z,21.58
2023-06-22T08:15:16.536Z,21.51
2023-06-22T08:17:46.945Z,21.60
2023-06-22T08:20:18.434Z,21.74
2023-06-22T08:22:48.811Z,21.89
2023-06-22T08:25:19.832Z,21.92
2023-06-22T08:27:51.436Z,22.09
2023-06-22T08:30:20.369Z,22.04
2023-06-22T08:32:50.357Z,22.07
2023-06-22T08:35:19.079Z,22.15
2023-06-22T08:37:54.023Z,22.30
2023-06-22T08:40:24.473Z,22.27
2023-06-22T08:42:53.067Z,22.35
2023-06-22T08:45:24.070Z,22.39
2023-06-22T08:47:54.487Z,22.41
2023-06-22T08:50:23.022Z,22.42
2023-06-22T08:52:58.995Z,22.39
2023-06-22T08:55:30.156Z,22.32
2023-06-22T08:57:59.637Z,22.50
2023-06-22T09:00:31.074Z,22.56
2023-06-22T09:03:04.970Z,22.58
2023-06-22T09:05:34.356Z,22.77
2023-06-22T09:08:02.989Z,22.86
2023-06-22T09:10:31.908Z,22.95
2023-06-22T09:13:02.535Z,23.09
2023-06-22T09:15:31.068Z,23.12
2023-06-22T09:18:02.788Z,23.16
2023-06-22T09:20:31.717Z,23.08
2023-06-22T09:23:00.550Z,23.06
2023-06-22T09:25:29.514Z,22.82
2023-06-22T09:27:59.860Z,22.84
2023-06-22T09:30:28.595Z,22.86
2023-06-22T09:33:02.498Z,22.98
2023-06-22T09:35:32.535Z,23.14
2023-06-22T09:38:03.932Z,23.22
2023-06-22T09:40:33.993Z,23.19
2023-06-22T09:43:03.439Z,23.21
2023-06-22T09:45:32.223Z,23.35
2023-06-22T09:48:01.158Z,23.56
2023-06-22T09:50:30.487Z,23.63
2023-06-22T09:53:00.668Z,23.61
2023-06-22T09:55:29.233Z,23.71
2023-06-22T09:57:59.756Z,23.75
2023-06-22T10:00:29.255Z,23.75
2023-06-22T10:03:01.297Z,23.80
2023-06-22T10:05:30.640Z,23.74
2023-06-22T10:08:04.795Z,23.78
2023-06-22T10:10:33.227Z,23.79
2023-06-22T10:13:09.926Z,23.71
2023-06-22T10:15:38.551Z,23.50
2023-06-22T10:18:07.092Z,23.56
2023-06-22T10:20:35.892Z,23.63
2023-06-22T10:23:07.367Z,23.62
2023-06-22T10:25:35.773Z,23.64
2023-06-22T10:28:04.389Z,23.68
2023-06-22T10:30:32.841Z,23.79
2023-06-22T10:33:01.322Z,23.71
2023-06-22T10:35:30.191Z,23.77
2023-06-22T10:38:00.174Z,23.79
2023-06-22T10:40:31.499Z,23.84
2023-06-22T10:42:59.955Z,23.86
2023-06-22T10:45:28.913Z,23.99
2023-06-22T10:48:00.896Z,24.12
2023-06-22T10:50:31.428Z,24.19
2023-06-22T10:53:00.873Z,24.25
2023-06-22T10:55:40.347Z,24.32
2023-06-22T10:58:15.735Z,24.29
2023-06-22T11:00:44.366Z,24.22
2023-06-22T11:03:14.856Z,24.26
2023-06-22T11:05:43.457Z,24.21
2023-06-22T11:08:11.924Z,24.25
2023-06-22T11:10:44.192Z,24.36
2023-06-22T11:13:13.324Z,24.36
2023-06-22T11:15:43.610Z,24.36
2023-06-22T11:18:11.987Z,24.37
2023-06-22T11:20:42.152Z,24.42
2023-06-22T11:23:10.793Z,24.44
2023-06-22T11:25:39.592Z,24.51
2023-06-22T11:28:09.505Z,24.70
2023-06-22T11:30:39.153Z,24.94
2023-06-22T11:33:07.547Z,25.11
2023-06-22T11:35:38.559Z,25.10
2023-06-22T11:38:09.030Z,25.10
2023-06-22T11:40:40.726Z,25.04
2023-06-22T11:43:10.572Z,24.96
2023-06-22T11:45:40.053Z,24.96
2023-06-22T11:48:08.919Z,25.01
2023-06-22T11:50:38.110Z,25.00
2023-06-22T11:53:08.760Z,25.01
2023-06-22T11:55:37.276Z,24.98
2023-06-22T11:58:08.428Z,25.02
2023-06-22T12:00:46.204Z,25.23
2023-06-22T12:03:19.799Z,25.34
2023-06-22T12:05:48.415Z,25.31
2023-06-22T12:08:16.727Z,25.36
2023-06-22T12:10:46.706Z,25.39
2023-06-22T12:13:17.829Z,25.53
2023-06-22T12:15:47.859Z,25.81
2023-06-22T12:18:16.740Z,25.92
2023-06-22T12:20:46.057Z,25.76
2023-06-22T12:23:14.958Z,25.79
2023-06-22T12:25:47.725Z,25.80
2023-06-22T12:28:16.400Z,25.85
2023-06-22T12:30:44.848Z,25.73
2023-06-22T12:33:16.035Z,25.72
2023-06-22T12:35:44.579Z,25.64
2023-06-22T12:38:13.150Z,25.61
2023-06-22T12:40:43.115Z,25.48
2023-06-22T12:43:12.943Z,25.31
2023-06-22T12:45:41.984Z,25.12
2023-06-22T12:48:13.462Z,25.13
2023-06-22T12:50:43.590Z,25.04
2023-06-22T12:53:12.041Z,25.00
2023-06-22T12:55:40.294Z,25.03
2023-06-22T12:58:09.009Z,25.17
2023-06-22T13:00:42.599Z,25.18
2023-06-22T13:03:11.468Z,25.29
2023-06-22T13:05:40.276Z,25.42
2023-06-22T13:08:13.238Z,25.58
2023-06-22T13:10:43.183Z,25.74
2023-06-22T13:13:12.742Z,25.91
2023-06-22T13:15:41.361Z,26.04
2023-06-22T13:18:11.554Z,26.11
2023-06-22T13:20:40.135Z,26.01
2023-06-22T13:23:10.509Z,25.82
2023-06-22T13:25:38.921Z,25.70
2023-06-22T13:28:07.987Z,25.57
2023-06-22T13:30:41.838Z,25.63
2023-06-22T13:33:11.006Z,25.64
2023-06-22T13:35:39.683Z,25.68
2023-06-22T13:38:10.647Z,25.86
2023-06-22T13:40:42.143Z,25.92
2023-06-22T13:43:10.498Z,25.84
2023-06-22T13:45:38.870Z,25.81
2023-06-22T13:48:08.025Z,25.78
2023-06-22T13:50:36.961Z,25.72
2023-06-22T13:53:05.385Z,25.81
2023-06-22T13:55:36.157Z,25.78
2023-06-22T13:58:04.526Z,25.86
2023-06-22T14:00:33.083Z,25.85
2023-06-22T14:03:01.931Z,25.85
2023-06-22T14:05:30.321Z,25.88
2023-06-22T14:08:06.971Z,25.89
2023-06-22T14:10:42.232Z,25.90
2023-06-22T14:13:10.784Z,25.74
2023-06-22T14:15:49.708Z,25.53
2023-06-22T14:18:18.022Z,25.34
2023-06-22T14:20:47.608Z,25.20
2023-06-22T14:23:15.990Z,25.23
2023-06-22T14:25:45.946Z,25.23
2023-06-22T14:28:14.927Z,25.25
2023-06-22T14:30:43.394Z,25.20
2023-06-22T14:33:11.810Z,25.23
2023-06-22T14:35:46.625Z,25.22
2023-06-22T14:38:20.178Z,25.29
2023-06-22T14:41:11.728Z,25.18
2023-06-22T14:43:40.589Z,24.98
2023-06-22T14:46:12.472Z,24.92
2023-06-22T14:48:41.080Z,24.98
2023-06-22T14:51:16.343Z,25.15
2023-06-22T14:53:46.968Z,25.30
2023-06-22T14:56:17.196Z,25.32
2023-06-22T14:58:47.395Z,25.29
2023-06-22T15:01:16.520Z,25.32
2023-06-22T15:03:45.038Z,25.37
2023-06-22T15:06:16.066Z,25.41
2023-06-22T15:08:44.593Z,25.38
2023-06-22T15:11:13.483Z,25.36
2023-06-22T15:13:44.028Z,25.40
2023-06-22T15:16:12.324Z,25.35
2023-06-22T15:18:42.380Z,25.36
2023-06-22T15:21:11.179Z,25.36
2023-06-22T15:23:39.635Z,25.48
2023-06-22T15:26:10.785Z,25.72
2023-06-22T15:28:39.508Z,26.00
2023-06-22T15:31:10.300Z,26.78
2023-06-22T15:33:39.251Z,28.05
2023-06-22T15:36:08.477Z,27.92
2023-06-22T15:38:37.084Z,28.81
2023-06-22T15:41:05.908Z,29.33
2023-06-22T15:43:34.390Z,30.30
2023-06-22T15:46:12.967Z,30.54
2023-06-22T15:48:42.943Z,29.58
2023-06-22T15:51:11.882Z,28.84
2023-06-22T15:53:40.697Z,29.18
2023-06-22T15:56:12.141Z,29.04
2023-06-22T15:58:41.904Z,29.25
2023-06-22T16:01:10.406Z,29.95
2023-06-22T16:03:40.255Z,30.65
2023-06-22T16:06:13.190Z,31.33
2023-06-22T16:08:41.850Z,31.85
2023-06-22T16:11:28.443Z,32.19
2023-06-22T16:13:57.132Z,32.13
2023-06-22T16:16:25.540Z,32.14
2023-06-22T16:18:54.227Z,32.20
2023-06-22T16:21:24.446Z,32.34
2023-06-22T16:23:53.408Z,32.79
2023-06-22T16:26:23.612Z,32.87
2023-06-22T16:28:52.140Z,32.91
2023-06-22T16:31:20.571Z,32.94
2023-06-22T16:33:50.858Z,32.73
2023-06-22T16:36:19.102Z,32.58
2023-06-22T16:38:48.890Z,32.38
2023-06-22T16:41:22.921Z,32.29
2023-06-22T16:43:51.502Z,32.11
2023-06-22T16:46:19.859Z,32.12
2023-06-22T16:48:53.524Z,32.13
2023-06-22T16:51:24.167Z,32.09
2023-06-22T16:53:57.634Z,32.01
2023-06-22T16:56:28.342Z,32.04
2023-06-22T16:59:07.093Z,31.98
2023-06-22T17:01:39.307Z,32.18
2023-06-22T17:04:17.495Z,32.05
2023-06-22T17:06:53.712Z,32.21
2023-06-22T17:09:24.968Z,32.20
2023-06-22T17:11:58.573Z,32.29
2023-06-22T17:14:26.929Z,32.03
2023-06-22T17:16:55.955Z,31.87
2023-06-22T17:19:25.568Z,31.95
2023-06-22T17:21:53.907Z,31.87
2023-06-22T17:24:27.489Z,31.81
2023-06-22T17:26:57.910Z,31.84
2023-06-22T17:29:34.269Z,31.60
2023-06-22T17:32:04.229Z,31.41
2023-06-22T17:34:33.291Z,31.20
2023-06-22T17:37:17.913Z,31.04
2023-06-22T17:39:54.238Z,30.38
2023-06-22T17:42:25.793Z,29.92
2023-06-22T17:44:54.253Z,29.35
2023-06-22T17:47:26.600Z,29.70
2023-06-22T17:50:06.371Z,30.06
2023-06-22T17:52:34.818Z,30.27
2023-06-22T17:57:39.541Z,30.78
2023-06-22T18:00:10.220Z,30.67
2023-06-22T18:02:45.197Z,30.79
2023-06-22T18:05:17.407Z,30.62
2023-06-22T18:07:46.094Z,30.53
2023-06-22T18:10:17.610Z,30.55
2023-06-22T18:12:48.539Z,30.14
2023-06-22T18:15:17.276Z,30.06
2023-06-22T18:17:46.239Z,29.69
2023-06-22T18:20:15.000Z,29.19
2023-06-22T18:22:43.712Z,29.28
2023-06-22T18:25:13.902Z,29.25
2023-06-22T18:27:45.426Z,29.26
2023-06-22T18:30:22.492Z,29.18
2023-06-22T18:32:51.244Z,29.18
2023-06-22T18:35:19.899Z,29.13
2023-06-22T18:37:52.923Z,29.37
2023-06-22T18:40:23.238Z,29.48
2023-06-22T18:43:00.974Z,29.73
2023-06-22T18:45:34.256Z,29.63
2023-06-22T18:48:09.465Z,29.20
2023-06-22T18:50:41.844Z,28.78
2023-06-22T18:53:20.681Z,28.60
2023-06-22T18:55:52.947Z,28.26
2023-06-22T18:58:26.731Z,27.66
2023-06-22T19:00:56.697Z,27.07
2023-06-22T19:03:33.164Z,26.33
2023-06-22T19:06:04.902Z,25.78
2023-06-22T19:09:07.465Z,25.22
2023-06-22T19:11:35.977Z,24.77
2023-06-22T19:14:09.667Z,24.40
2023-06-22T19:16:41.666Z,24.06
2023-06-22T19:19:19.902Z,23.77
2023-06-22T19:22:01.068Z,23.53
2023-06-22T19:24:33.460Z,23.31
2023-06-22T19:27:09.027Z,23.18
2023-06-22T19:29:39.646Z,23.03
2023-06-22T19:32:10.011Z,22.90
2023-06-22T19:34:45.560Z,22.77
2023-06-22T19:37:17.260Z,22.67
2023-06-22T19:39:47.686Z,22.53
2023-06-22T19:42:16.943Z,22.38
2023-06-22T19:44:47.715Z,22.21
2023-06-22T19:47:16.607Z,22.05
2023-06-22T19:49:45.580Z,21.89
2023-06-22T19:52:14.515Z,21.77
2023-06-22T19:54:48.027Z,21.67
2023-06-22T19:57:18.251Z,21.52
2023-06-22T19:59:50.914Z,21.38
2023-06-22T20:02:19.315Z,21.28
2023-06-22T20:04:47.908Z,21.18
2023-06-22T20:07:19.932Z,21.05
2023-06-22T20:09:48.244Z,20.97
2023-06-22T20:12:26.140Z,20.87
2023-06-22T20:14:56.345Z,20.82
2023-06-22T20:17:24.864Z,20.70
2023-06-22T20:19:56.138Z,20.63
2023-06-22T20:22:24.555Z,20.53
2023-06-22T20:24:53.642Z,20.43
2023-06-22T20:27:22.438Z,20.30
2023-06-22T20:29:51.108Z,20.25
2023-06-22T20:32:21.547Z,20.20
2023-06-22T20:34:50.442Z,20.13
2023-06-22T20:37:23.313Z,20.12
2023-06-22T20:39:52.787Z,20.05
2023-06-22T20:42:21.146Z,19.99
2023-06-22T20:44:51.812Z,19.91
2023-06-22T20:47:22.833Z,19.83
2023-06-22T20:49:51.457Z,19.72
2023-06-22T20:52:20.433Z,19.64
2023-06-22T20:54:48.889Z,19.58
2023-06-22T20:57:17.443Z,19.49
2023-06-22T20:59:45.864Z,19.39
2023-06-22T21:02:18.921Z,19.36
2023-06-22T21:04:51.312Z,19.25
2023-06-22T21:07:19.717Z,19.20
2023-06-22T21:09:52.192Z,19.14
2023-06-22T21:12:24.943Z,19.12
2023-06-22T21:14:53.251Z,19.07
2023-06-22T21:17:22.472Z,19.05
2023-06-22T21:19:54.287Z,19.04
2023-06-22T21:22:23.384Z,19.00
2023-06-22T21:25:09.772Z,18.91
2023-06-22T21:27:38.754Z,18.82
2023-06-22T21:30:09.409Z,18.73
2023-06-22T21:32:37.776Z,18.65
2023-06-22T21:35:13.050Z,18.61
2023-06-22T21:37:43.421Z,18.52
2023-06-22T21:40:17.470Z,18.48
2023-06-22T21:42:45.958Z,18.43
2023-06-22T21:45:14.367Z,18.37
2023-06-22T21:47:42.894Z,18.34
2023-06-22T21:50:12.995Z,18.29
2023-06-22T21:52:44.720Z,18.27
2023-06-22T21:55:14.317Z,18.24
2023-06-22T21:57:42.747Z,18.19
2023-06-22T22:00:12.736Z,18.14
2023-06-22T22:02:42.816Z,18.10
2023-06-22T22:05:14.736Z,18.07
2023-06-22T22:07:43.274Z,18.04
2023-06-22T22:10:13.766Z,17.99
2023-06-22T22:12:41.982Z,17.96
2023-06-22T22:15:10.745Z,17.93
2023-06-22T22:17:39.400Z,17.86
2023-06-22T22:20:10.612Z,17.83
2023-06-22T22:22:40.372Z,17.76
2023-06-22T22:25:10.552Z,17.69
2023-06-22T22:27:39.153Z,17.67
2023-06-22T22:30:09.723Z,17.61
2023-06-22T22:35:37.070Z,17.39
2023-06-22T22:38:07.101Z,17.38
2023-06-22T22:40:36.846Z,17.29
2023-06-22T22:43:07.411Z,17.27
2023-06-22T22:45:35.790Z,17.24
2023-06-22T22:48:04.190Z,17.24
2023-06-22T22:50:32.466Z,17.23
2023-06-22T22:53:00.829Z,17.21
2023-06-22T22:55:30.914Z,17.14
2023-06-22T22:58:00.053Z,17.16
2023-06-22T23:00:31.467Z,17.15
2023-06-22T23:03:03.009Z,17.08
2023-06-22T23:05:31.927Z,17.05
2023-06-22T23:08:04.878Z,17.01
2023-06-22T23:10:34.843Z,16.97
2023-06-22T23:13:03.514Z,16.94
2023-06-22T23:15:32.191Z,16.91
2023-06-22T23:18:01.549Z,16.87
2023-06-22T23:20:29.795Z,16.83
2023-06-22T23:23:04.066Z,16.80
2023-06-22T23:25:33.274Z,16.77
2023-06-22T23:28:03.928Z,16.73
2023-06-22T23:30:33.093Z,16.69
2023-06-22T23:33:01.418Z,16.66
2023-06-22T23:35:30.265Z,16.62
2023-06-22T23:38:02.331Z,16.60
2023-06-22T23:40:32.099Z,16.57
2023-06-22T23:43:00.954Z,16.52
2023-06-22T23:45:31.602Z,16.48
2023-06-22T23:48:00.533Z,16.44
2023-06-22T23:50:29.325Z,16.42
2023-06-22T23:53:10.694Z,16.38
2023-06-22T23:55:39.467Z,16.32
2023-06-22T23:58:07.977Z,16.33
